createdAt,value
2023-08-15T00:00:08.519Z,10.20
2023-08-15T00:02:41.189Z,10.77
2023-08-15T00:05:10.500Z,11.67
2023-08-15T00:07:57.321Z,12.27
2023-08-15T00:10:25.871Z,9.60
2023-08-15T00:12:55.571Z,13.07
2023-08-15T00:15:24.314Z,12.47
2023-08-15T00:17:52.747Z,11.43
2023-08-15T00:20:21.539Z,9.17
2023-08-15T00:22:50.268Z,9.77
2023-08-15T00:25:19.049Z,9.00
2023-08-15T00:27:47.398Z,10.27
2023-08-15T00:30:17.364Z,10.33
2023-08-15T00:32:45.911Z,9.47
2023-08-15T00:35:14.370Z,12.17
2023-08-15T00:37:43.647Z,15.00
2023-08-15T00:40:13.217Z,11.53
2023-08-15T00:42:41.701Z,12.03
2023-08-15T00:45:10.771Z,10.23
2023-08-15T00:47:40.732Z,9.77
2023-08-15T00:50:11.824Z,8.73
2023-08-15T00:52:41.814Z,10.70
2023-08-15T00:55:12.102Z,8.07
2023-08-15T00:57:41.391Z,11.50
2023-08-15T01:00:12.566Z,11.20
2023-08-15T01:02:42.921Z,8.83
2023-08-15T01:05:11.670Z,13.97
2023-08-15T01:07:40.464Z,10.37
2023-08-15T01:10:11.053Z,10.60
2023-08-15T01:12:46.138Z,8.87
2023-08-15T01:15:21.426Z,8.93
2023-08-15T01:18:01.893Z,13.23
2023-08-15T01:20:34.592Z,10.83
2023-08-15T01:23:07.500Z,9.97
2023-08-15T01:25:43.297Z,12.13
2023-08-15T01:28:14.651Z,8.37
2023-08-15T01:30:48.912Z,9.93
2023-08-15T01:33:25.016Z,9.03
2023-08-15T01:36:00.910Z,9.00
2023-08-15T01:38:38.029Z,11.77
2023-08-15T01:41:09.925Z,9.43
2023-08-15T01:43:41.040Z,7.83
2023-08-15T01:46:10.936Z,10.87
2023-08-15T01:48:43.593Z,10.80
2023-08-15T01:51:12.675Z,9.13
2023-08-15T01:53:41.351Z,11.33
2023-08-15T01:56:11.503Z,9.97
2023-08-15T01:58:39.846Z,8.90
2023-08-15T02:01:08.291Z,10.90
2023-08-15T02:03:36.734Z,11.90
2023-08-15T02:06:06.122Z,9.17
2023-08-15T02:08:34.679Z,8.17
2023-08-15T02:11:04.328Z,8.27
2023-08-15T02:13:35.015Z,11.27
2023-08-15T02:16:03.733Z,9.00
2023-08-15T02:18:32.473Z,10.60
2023-08-15T02:21:01.019Z,11.00
2023-08-15T02:23:29.392Z,8.47
2023-08-15T02:25:57.864Z,10.17
2023-08-15T02:28:26.405Z,9.70
2023-08-15T02:30:56.401Z,9.07
2023-08-15T02:33:24.942Z,11.03
2023-08-15T02:35:54.954Z,10.43
2023-08-15T02:38:26.367Z,9.63
2023-08-15T02:40:54.979Z,10.43
2023-08-15T02:43:23.572Z,9.93
2023-08-15T02:45:52.375Z,10.63
2023-08-15T02:48:22.072Z,11.80
2023-08-15T02:50:51.357Z,12.73
2023-08-15T02:53:19.926Z,13.17
2023-08-15T02:55:51.834Z,12.80
2023-08-15T02:58:20.388Z,13.03
2023-08-15T03:00:48.881Z,10.27
2023-08-15T03:03:17.549Z,15.87
2023-08-15T03:05:47.431Z,12.80
2023-08-15T03:08:15.976Z,13.53
2023-08-15T03:10:44.420Z,12.30
2023-08-15T03:13:13.757Z,19.23
2023-08-15T03:15:42.373Z,15.73
2023-08-15T03:18:11.294Z,15.73
2023-08-15T03:20:42.582Z,20.00
2023-08-15T03:23:13.571Z,15.20
2023-08-15T03:25:42.196Z,23.20
2023-08-15T03:28:10.716Z,16.70
2023-08-15T03:30:39.487Z,15.27
2023-08-15T03:33:08.886Z,15.37
2023-08-15T03:35:37.907Z,15.17
2023-08-15T03:38:06.386Z,12.77
2023-08-15T03:40:36.344Z,14.33
2023-08-15T03:43:07.515Z,10.23
2023-08-15T03:45:36.884Z,13.70
2023-08-15T03:48:06.646Z,12.07
2023-08-15T03:50:35.415Z,15.63
2023-08-15T03:53:04.087Z,11.67
2023-08-15T03:55:33.435Z,14.77
2023-08-15T03:58:03.701Z,11.50
2023-08-15T04:00:32.660Z,10.23
2023-08-15T04:03:01.162Z,12.03
2023-08-15T04:05:29.731Z,8.90
2023-08-15T04:07:58.079Z,13.83
2023-08-15T04:10:26.620Z,9.40
2023-08-15T04:12:55.164Z,12.73
2023-08-15T04:15:24.974Z,10.73
2023-08-15T04:17:54.815Z,9.57
2023-08-15T04:20:23.360Z,14.83
2023-08-15T04:22:51.775Z,6.97
2023-08-15T04:25:20.167Z,7.77
2023-08-15T04:27:48.693Z,11.57
2023-08-15T04:30:17.152Z,13.63
2023-08-15T04:32:47.593Z,11.97
2023-08-15T04:35:16.987Z,13.13
2023-08-15T04:37:45.512Z,18.33
2023-08-15T04:40:15.176Z,10.93
2023-08-15T04:42:46.535Z,14.87
2023-08-15T04:45:15.071Z,11.37
2023-08-15T04:47:43.424Z,12.37
2023-08-15T04:50:13.657Z,9.23
2023-08-15T04:52:42.042Z,11.67
2023-08-15T04:55:14.366Z,8.67
2023-08-15T04:57:43.512Z,11.10
2023-08-15T05:00:14.169Z,12.67
2023-08-15T05:02:42.671Z,13.50
2023-08-15T05:05:11.835Z,15.27
2023-08-15T05:07:42.990Z,11.27
2023-08-15T05:10:12.308Z,14.13
2023-08-15T05:12:44.131Z,14.67
2023-08-15T05:15:12.810Z,15.03
2023-08-15T05:17:41.362Z,13.73
2023-08-15T05:20:13.330Z,13.70
2023-08-15T05:22:43.130Z,11.53
2023-08-15T05:25:11.569Z,15.43
2023-08-15T05:27:46.320Z,12.33
2023-08-15T05:30:14.990Z,10.40
2023-08-15T05:32:43.502Z,10.97
2023-08-15T05:35:11.957Z,12.77
2023-08-15T05:37:40.465Z,13.27
2023-08-15T05:40:12.254Z,11.27
2023-08-15T05:42:41.148Z,13.70
2023-08-15T05:45:11.365Z,11.33
2023-08-15T05:47:39.920Z,9.93
2023-08-15T05:50:09.068Z,11.83
2023-08-15T05:52:37.492Z,14.37
2023-08-15T05:55:06.568Z,8.47
2023-08-15T05:57:36.407Z,10.40
2023-08-15T06:00:06.496Z,16.23
2023-08-15T06:02:42.040Z,15.93
2023-08-15T06:05:10.932Z,11.33
2023-08-15T06:07:39.254Z,14.13
2023-08-15T06:10:08.943Z,16.00
2023-08-15T06:12:38.796Z,10.90
2023-08-15T06:15:07.942Z,11.70
2023-08-15T06:17:36.502Z,13.80
2023-08-15T06:20:06.764Z,14.57
2023-08-15T06:22:35.284Z,13.60
2023-08-15T06:25:03.824Z,12.53
2023-08-15T06:27:33.179Z,18.70
2023-08-15T06:30:02.956Z,14.80
2023-08-15T06:32:33.224Z,16.50
2023-08-15T06:35:04.483Z,14.40
2023-08-15T06:37:32.926Z,17.50
2023-08-15T06:40:01.452Z,16.50
2023-08-15T06:42:29.837Z,14.60
2023-08-15T06:45:08.238Z,15.23
2023-08-15T06:47:36.903Z,15.27
2023-08-15T06:50:06.054Z,12.50
2023-08-15T06:52:34.432Z,12.17
2023-08-15T06:55:05.028Z,13.47
2023-08-15T06:57:33.766Z,13.13
2023-08-15T07:00:02.220Z,11.57
2023-08-15T07:02:33.151Z,15.00
2023-08-15T07:05:01.822Z,15.30
2023-08-15T07:07:30.477Z,16.23
2023-08-15T07:09:59.529Z,12.17
2023-08-15T07:12:27.952Z,17.60
2023-08-15T07:14:56.425Z,12.40
2023-08-15T07:17:24.933Z,10.43
2023-08-15T07:19:55.030Z,13.53
2023-08-15T07:22:23.969Z,13.97
2023-08-15T07:24:52.766Z,13.73
2023-08-15T07:27:21.991Z,17.63
2023-08-15T07:29:50.598Z,9.43
2023-08-15T07:34:48.261Z,17.97
2023-08-15T07:37:18.465Z,16.63
2023-08-15T07:39:46.959Z,13.50
2023-08-15T07:42:15.662Z,12.83
2023-08-15T07:44:44.224Z,10.90
2023-08-15T07:47:12.652Z,9.57
2023-08-15T07:49:41.125Z,10.67
2023-08-15T07:52:09.724Z,14.47
2023-08-15T07:54:41.492Z,12.57
2023-08-15T07:57:10.595Z,9.83
2023-08-15T07:59:39.084Z,15.00
2023-08-15T08:02:08.292Z,11.60
2023-08-15T08:04:36.836Z,12.77
2023-08-15T08:07:05.484Z,14.93
2023-08-15T08:09:33.956Z,11.70
2023-08-15T08:12:04.687Z,10.30
2023-08-15T08:14:33.952Z,15.33
2023-08-15T08:17:04.127Z,15.97
2023-08-15T08:19:32.671Z,12.23
2023-08-15T08:22:01.183Z,14.77
2023-08-15T08:24:29.637Z,17.60
2023-08-15T08:26:59.020Z,9.43
2023-08-15T08:29:28.786Z,11.50
2023-08-15T08:31:57.310Z,9.97
2023-08-15T08:34:26.025Z,10.77
2023-08-15T08:36:54.494Z,12.20
2023-08-15T08:39:31.674Z,9.17
2023-08-15T08:42:01.921Z,9.17
2023-08-15T08:44:34.036Z,9.27
2023-08-15T08:47:02.452Z,9.93
2023-08-15T08:49:32.400Z,8.67
2023-08-15T08:52:01.992Z,12.50
2023-08-15T08:54:47.020Z,11.47
2023-08-15T08:57:20.574Z,7.17
2023-08-15T08:59:51.237Z,9.20
2023-08-15T09:02:23.914Z,8.37
2023-08-15T09:04:54.994Z,8.23
2023-08-15T09:07:24.147Z,9.33
2023-08-15T09:09:53.039Z,10.83
2023-08-15T09:12:37.860Z,8.73
2023-08-15T09:15:09.866Z,6.30
2023-08-15T09:17:39.964Z,9.10
2023-08-15T09:20:13.820Z,8.53
2023-08-15T09:22:45.569Z,10.80
2023-08-15T09:25:16.291Z,7.77
2023-08-15T09:27:45.741Z,6.47
2023-08-15T09:30:18.447Z,9.87
2023-08-15T09:32:48.473Z,6.97
2023-08-15T09:35:20.331Z,8.47
2023-08-15T09:37:50.530Z,11.60
2023-08-15T09:40:20.638Z,6.77
2023-08-15T09:42:49.506Z,9.20
2023-08-15T09:45:19.650Z,7.90
2023-08-15T09:47:48.607Z,7.03
2023-08-15T09:50:18.195Z,8.37
2023-08-15T09:52:52.034Z,6.73
2023-08-15T09:55:21.795Z,6.70
2023-08-15T09:57:52.548Z,9.30
2023-08-15T10:00:22.481Z,7.87
2023-08-15T10:02:57.723Z,11.83
2023-08-15T10:05:31.335Z,6.40
2023-08-15T10:08:00.112Z,8.00
2023-08-15T10:10:33.364Z,10.00
2023-08-15T10:13:02.545Z,7.17
2023-08-15T10:15:35.957Z,10.13
2023-08-15T10:18:05.473Z,9.43
2023-08-15T10:20:37.790Z,7.77
2023-08-15T10:23:10.051Z,8.07
2023-08-15T10:25:41.313Z,7.60
2023-08-15T10:28:11.883Z,8.60
2023-08-15T10:30:52.074Z,6.20
2023-08-15T10:33:23.664Z,9.93
2023-08-15T10:36:06.779Z,10.60
2023-08-15T10:38:38.414Z,9.43
2023-08-15T10:41:08.066Z,10.20
2023-08-15T10:43:37.657Z,10.77
2023-08-15T10:46:09.297Z,7.43
2023-08-15T10:48:47.020Z,6.43
2023-08-15T10:51:25.966Z,7.63
2023-08-15T10:53:56.385Z,9.43
2023-08-15T10:56:26.246Z,8.17
2023-08-15T10:58:54.862Z,8.20
2023-08-15T11:01:25.951Z,9.17
2023-08-15T11:03:57.443Z,4.73
2023-08-15T11:06:26.208Z,11.87
2023-08-15T11:08:56.420Z,6.77
2023-08-15T11:11:25.010Z,9.57
2023-08-15T11:13:55.048Z,7.35
2023-08-15T11:16:25.680Z,6.60
2023-08-15T11:18:54.332Z,5.97
2023-08-15T11:21:22.903Z,8.37
2023-08-15T11:23:55.970Z,11.43
2023-08-15T11:26:27.077Z,7.93
2023-08-15T11:28:55.717Z,11.07
2023-08-15T11:31:25.734Z,8.20
2023-08-15T11:33:54.336Z,7.83
2023-08-15T11:36:23.526Z,13.32
2023-08-15T11:38:52.276Z,9.35
2023-08-15T11:41:21.145Z,6.10
2023-08-15T11:43:49.999Z,4.97
2023-08-15T11:46:18.707Z,8.10
2023-08-15T11:48:48.685Z,8.95
2023-08-15T11:51:23.452Z,7.27
2023-08-15T11:53:53.251Z,8.17
2023-08-15T11:56:21.885Z,6.77
2023-08-15T11:58:50.845Z,7.40
2023-08-15T12:01:19.342Z,11.37
2023-08-15T12:03:49.405Z,10.77
2023-08-15T12:06:19.581Z,8.80
2023-08-15T12:08:47.864Z,6.97
2023-08-15T12:11:24.596Z,7.13
2023-08-15T12:13:53.023Z,8.23
2023-08-15T12:16:22.003Z,9.88
2023-08-15T12:18:51.789Z,8.43
2023-08-15T12:21:20.293Z,7.22
2023-08-15T12:23:48.831Z,5.25
2023-08-15T12:26:17.206Z,4.30
2023-08-15T12:28:46.451Z,8.57
2023-08-15T12:31:14.945Z,9.15
2023-08-15T12:33:47.592Z,13.35
2023-08-15T12:36:17.964Z,8.48
2023-08-15T12:38:46.529Z,8.52
2023-08-15T12:41:15.769Z,9.43
2023-08-15T12:43:44.531Z,8.48
2023-08-15T12:46:13.259Z,9.48
2023-08-15T12:48:42.060Z,9.75
2023-08-15T12:51:10.728Z,7.17
2023-08-15T12:53:40.513Z,7.20
2023-08-15T12:56:08.984Z,6.15
2023-08-15T12:58:37.474Z,9.10
2023-08-15T13:01:06.099Z,8.18
2023-08-15T13:03:34.581Z,6.85
2023-08-15T13:06:03.911Z,10.93
2023-08-15T13:08:32.603Z,6.10
2023-08-15T13:11:02.395Z,6.15
2023-08-15T13:13:30.894Z,6.07
2023-08-15T13:15:59.475Z,11.88
2023-08-15T13:18:28.189Z,7.30
2023-08-15T13:20:57.670Z,7.13
2023-08-15T13:23:26.100Z,5.30
2023-08-15T13:25:54.714Z,7.85
2023-08-15T13:28:24.541Z,6.95
2023-08-15T13:30:53.182Z,10.27
2023-08-15T13:33:21.902Z,9.60
2023-08-15T13:35:50.400Z,8.43
2023-08-15T13:38:18.888Z,6.97
2023-08-15T13:40:47.569Z,4.38
2023-08-15T13:43:16.198Z,6.20
2023-08-15T13:45:46.382Z,6.80
2023-08-15T13:48:17.366Z,7.88
2023-08-15T13:50:46.024Z,9.48
2023-08-15T13:53:14.688Z,7.90
2023-08-15T13:55:43.414Z,7.32
2023-08-15T13:58:11.917Z,6.97
2023-08-15T14:00:40.513Z,4.72
2023-08-15T14:03:10.465Z,5.70
2023-08-15T14:05:39.226Z,4.20
2023-08-15T14:08:09.197Z,7.00
2023-08-15T14:10:37.779Z,6.18
2023-08-15T14:13:06.621Z,5.90
2023-08-15T14:15:37.617Z,7.13
2023-08-15T14:18:07.366Z,7.65
2023-08-15T14:20:39.626Z,6.80
2023-08-15T14:23:08.136Z,4.78
2023-08-15T14:25:36.856Z,5.43
2023-08-15T14:28:05.810Z,5.13
2023-08-15T14:30:34.399Z,5.82
2023-08-15T14:33:03.886Z,7.72
2023-08-15T14:35:33.601Z,6.25
2023-08-15T14:38:04.276Z,5.93
2023-08-15T14:40:33.212Z,4.97
2023-08-15T14:43:02.521Z,8.63
2023-08-15T14:45:31.528Z,5.80
2023-08-15T14:47:59.984Z,11.23
2023-08-15T14:50:28.661Z,8.15
2023-08-15T14:52:57.302Z,4.05
2023-08-15T14:55:27.224Z,6.10
2023-08-15T14:57:55.731Z,4.90
2023-08-15T15:00:24.359Z,3.83
2023-08-15T15:02:53.024Z,7.38
2023-08-15T15:05:21.702Z,3.35
2023-08-15T15:07:50.377Z,4.45
2023-08-15T15:10:19.255Z,7.85
2023-08-15T15:12:49.402Z,4.90
2023-08-15T15:15:18.810Z,4.97
2023-08-15T15:17:48.570Z,2.53
2023-08-15T15:20:17.285Z,5.35
2023-08-15T15:22:49.019Z,2.30
2023-08-15T15:25:17.678Z,6.60
2023-08-15T15:27:46.126Z,14.70
2023-08-15T15:30:16.023Z,3.55
2023-08-15T15:32:44.392Z,2.92
2023-08-15T15:35:13.031Z,3.22
2023-08-15T15:37:41.459Z,5.72
2023-08-15T15:40:10.819Z,6.22
2023-08-15T15:42:39.313Z,5.65
2023-08-15T15:45:09.121Z,4.45
2023-08-15T15:47:39.409Z,3.10
2023-08-15T15:50:09.007Z,4.45
2023-08-15T15:52:37.875Z,5.80
2023-08-15T15:55:09.416Z,4.15
2023-08-15T15:57:39.172Z,5.53
2023-08-15T16:00:13.971Z,6.18
2023-08-15T16:02:44.393Z,4.95
2023-08-15T16:05:13.083Z,4.95
2023-08-15T16:07:41.909Z,7.28
2023-08-15T16:10:12.168Z,5.85
2023-08-15T16:12:40.814Z,5.53
2023-08-15T16:15:10.391Z,5.28
2023-08-15T16:17:38.884Z,6.32
2023-08-15T16:20:10.271Z,5.07
2023-08-15T16:22:38.845Z,3.33
2023-08-15T16:25:08.504Z,4.22
2023-08-15T16:27:37.681Z,5.43
2023-08-15T16:30:17.239Z,4.95
2023-08-15T16:32:49.023Z,8.23
2023-08-15T16:35:19.436Z,3.50
2023-08-15T16:37:48.287Z,4.53
2023-08-15T16:40:17.913Z,10.93
2023-08-15T16:42:46.435Z,4.95
2023-08-15T16:45:15.048Z,3.58
2023-08-15T16:47:43.477Z,5.75
2023-08-15T16:50:12.040Z,2.08
2023-08-15T16:52:42.082Z,4.57
2023-08-15T16:55:11.161Z,6.28
2023-08-15T16:57:39.651Z,4.50
2023-08-15T17:00:09.522Z,7.53
2023-08-15T17:02:38.347Z,5.72
2023-08-15T17:05:08.185Z,6.97
2023-08-15T17:07:36.962Z,3.97
2023-08-15T17:10:07.473Z,3.83
2023-08-15T17:12:35.968Z,5.75
2023-08-15T17:15:04.961Z,8.77
2023-08-15T17:17:33.596Z,4.03
2023-08-15T17:20:02.238Z,7.05
2023-08-15T17:22:33.545Z,5.30
2023-08-15T17:25:02.183Z,13.50
2023-08-15T17:27:32.285Z,10.32
2023-08-15T17:30:00.832Z,10.40
2023-08-15T17:32:30.986Z,11.25
2023-08-15T17:34:59.583Z,13.35
2023-08-15T17:37:27.927Z,9.20
2023-08-15T17:39:56.450Z,8.30
2023-08-15T17:42:25.191Z,10.52
2023-08-15T17:44:55.145Z,8.57
2023-08-15T17:47:23.605Z,7.88
2023-08-15T17:49:52.010Z,10.55
2023-08-15T17:52:20.943Z,8.52
2023-08-15T17:54:49.840Z,9.75
2023-08-15T17:57:18.541Z,8.48
2023-08-15T17:59:46.942Z,9.35
2023-08-15T18:02:16.781Z,11.80
2023-08-15T18:04:45.345Z,8.05
2023-08-15T18:07:13.923Z,8.65
2023-08-15T18:09:42.424Z,13.63
2023-08-15T18:12:11.079Z,9.07
2023-08-15T18:14:42.202Z,9.85
2023-08-15T18:17:10.888Z,7.63
2023-08-15T18:19:41.126Z,8.57
2023-08-15T18:22:11.108Z,11.80
2023-08-15T18:24:40.927Z,8.87
2023-08-15T18:27:09.516Z,11.33
2023-08-15T18:29:38.235Z,9.07
2023-08-15T18:32:07.380Z,7.60
2023-08-15T18:34:35.937Z,9.73
2023-08-15T18:37:06.199Z,7.90
2023-08-15T18:39:34.660Z,13.87
2023-08-15T18:42:03.238Z,5.83
2023-08-15T18:44:31.765Z,10.47
2023-08-15T18:47:03.500Z,6.17
2023-08-15T18:49:34.869Z,7.23
2023-08-15T18:52:17.312Z,8.47
2023-08-15T18:54:45.988Z,7.70
2023-08-15T18:57:14.574Z,7.47
2023-08-15T18:59:43.252Z,6.87
2023-08-15T19:02:11.900Z,5.67
2023-08-15T19:04:40.640Z,6.20
2023-08-15T19:07:09.155Z,4.70
2023-08-15T19:09:39.158Z,8.37
2023-08-15T19:12:08.159Z,9.97
2023-08-15T19:14:37.125Z,7.80
2023-08-15T19:17:05.865Z,4.53
2023-08-15T19:19:34.672Z,6.80
2023-08-15T19:22:03.513Z,9.93
2023-08-15T19:24:33.145Z,7.47
2023-08-15T19:27:05.892Z,7.90
2023-08-15T19:29:34.526Z,7.93
2023-08-15T19:32:03.342Z,5.53
2023-08-15T19:34:31.939Z,5.67
2023-08-15T19:37:00.627Z,6.93
2023-08-15T19:39:34.182Z,4.17
2023-08-15T19:42:04.159Z,10.80
2023-08-15T19:44:33.205Z,5.60
2023-08-15T19:47:02.592Z,7.07
2023-08-15T19:49:35.872Z,4.20
2023-08-15T19:52:05.021Z,5.10
2023-08-15T19:54:33.540Z,8.10
2023-08-15T19:57:03.573Z,6.27
2023-08-15T19:59:32.272Z,5.17
2023-08-15T20:02:00.860Z,4.03
2023-08-15T20:04:30.358Z,4.43
2023-08-15T20:06:59.179Z,5.57
2023-08-15T20:09:27.867Z,6.93
2023-08-15T20:11:56.619Z,6.67
2023-08-15T20:14:28.946Z,11.50
2023-08-15T20:17:00.509Z,7.50
2023-08-15T20:19:29.244Z,7.10
2023-08-15T20:21:59.417Z,8.30
2023-08-15T20:24:28.249Z,4.60
2023-08-15T20:26:56.824Z,7.50
2023-08-15T20:29:26.942Z,5.23
2023-08-15T20:31:55.921Z,4.37
2023-08-15T20:34:24.922Z,7.07
2023-08-15T20:36:53.504Z,6.33
2023-08-15T20:39:22.081Z,5.77
2023-08-15T20:41:50.909Z,5.20
2023-08-15T20:44:19.633Z,5.37
2023-08-15T20:46:50.646Z,5.83
2023-08-15T20:49:19.305Z,5.53
2023-08-15T20:51:47.802Z,5.23
2023-08-15T20:54:16.342Z,7.93
2023-08-15T20:56:44.971Z,8.77
2023-08-15T20:59:13.555Z,7.10
2023-08-15T21:01:42.702Z,7.20
2023-08-15T21:04:12.640Z,8.70
2023-08-15T21:06:41.144Z,7.80
2023-08-15T21:09:09.653Z,6.97
2023-08-15T21:11:38.172Z,7.27
2023-08-15T21:14:06.776Z,5.50
2023-08-15T21:16:35.325Z,6.57
2023-08-15T21:19:03.857Z,7.70
2023-08-15T21:21:33.646Z,7.67
2023-08-15T21:24:02.341Z,7.63
2023-08-15T21:26:31.258Z,6.63
2023-08-15T21:28:59.949Z,8.53
2023-08-15T21:31:28.934Z,7.57
2023-08-15T21:33:57.642Z,6.30
2023-08-15T21:36:26.304Z,14.07
2023-08-15T21:38:56.122Z,7.97
2023-08-15T21:41:24.556Z,9.87
2023-08-15T21:43:52.986Z,11.40
2023-08-15T21:46:21.663Z,8.70
2023-08-15T21:48:50.228Z,9.37
2023-08-15T21:51:18.594Z,10.33
2023-08-15T21:53:47.168Z,11.83
2023-08-15T21:56:17.194Z,9.10
2023-08-15T21:58:45.715Z,7.37
2023-08-15T22:01:14.220Z,8.20
2023-08-15T22:03:42.840Z,11.87
2023-08-15T22:06:11.871Z,8.30
2023-08-15T22:08:42.119Z,8.07
2023-08-15T22:11:10.776Z,5.37
2023-08-15T22:13:40.658Z,7.37
2023-08-15T22:16:09.249Z,7.57
2023-08-15T22:18:39.313Z,9.93
2023-08-15T22:21:08.080Z,8.30
2023-08-15T22:23:36.663Z,8.63
2023-08-15T22:26:05.097Z,7.00
2023-08-15T22:28:33.467Z,8.37
2023-08-15T22:31:03.459Z,6.93
2023-08-15T22:33:31.884Z,6.63
2023-08-15T22:36:00.295Z,11.00
2023-08-15T22:38:29.502Z,8.70
2023-08-15T22:40:58.136Z,6.53
2023-08-15T22:43:26.757Z,7.97
2023-08-15T22:45:55.252Z,6.00
2023-08-15T22:48:25.924Z,5.33
2023-08-15T22:50:54.343Z,5.87
2023-08-15T22:53:22.769Z,8.90
2023-08-15T22:55:51.102Z,7.07
2023-08-15T22:58:19.597Z,5.63
2023-08-15T23:00:51.921Z,7.27
2023-08-15T23:03:20.379Z,6.77
2023-08-15T23:05:50.503Z,6.67
2023-08-15T23:08:22.177Z,8.23
2023-08-15T23:10:54.621Z,9.77
2023-08-15T23:13:23.355Z,6.87
2023-08-15T23:15:51.927Z,6.23
2023-08-15T23:18:20.455Z,9.10
2023-08-15T23:20:50.462Z,5.00
2023-08-15T23:23:19.196Z,8.33
2023-08-15T23:25:47.641Z,7.77
2023-08-15T23:28:16.119Z,6.63
2023-08-15T23:30:44.867Z,8.70
2023-08-15T23:33:15.020Z,5.87
2023-08-15T23:35:43.647Z,6.77
2023-08-15T23:38:13.843Z,9.23
2023-08-15T23:40:42.539Z,7.23
2023-08-15T23:43:11.004Z,8.10
2023-08-15T23:45:39.469Z,8.33
2023-08-15T23:48:08.733Z,4.93
2023-08-15T23:50:37.211Z,6.83
2023-08-15T23:53:05.818Z,10.93
2023-08-15T23:55:35.559Z,8.33
2023-08-15T23:58:03.920Z,4.80
